This is the latest recevied weather packets stored in our database for station/object DL6MAA-11. If no packets are shown the sender has not sent any weather packets the latest 10 day(s).
| Time | Temp. | Humidity | Pressure | Rain* | Wind** | Luminosity | Snow |
|---|---|---|---|---|---|---|---|
| 1777562534 | 15.56° C | 25% | 1021.2 hPa | 0 mm | - | 338 W/m² | - |
| 1777562237 | 15° C | 25% | 1021.2 hPa | 0 mm | - | 350 W/m² | - |
| 1777561938 | 15° C | 25% | 1021 hPa | 0 mm | - | 352 W/m² | - |
| 1777561643 | 15° C | 25% | 1021 hPa | 0 mm | - | 359 W/m² | - |
| 1777561329 | 15.56° C | 25% | 1021 hPa | 0 mm | - | 373 W/m² | - |
| 1777561045 | 15.56° C | 25% | 1021 hPa | 0 mm | - | 378 W/m² | - |
| 1777560745 | 15.56° C | 25% | 1021 hPa | 0 mm | - | 385 W/m² | - |
| 1777560430 | 15.56° C | 25% | 1021 hPa | 0 mm | - | 397 W/m² | - |
| 1777560131 | 15.56° C | 24% | 1021.1 hPa | 0 mm | - | 403 W/m² | - |
| 1777559846 | 15.56° C | 24% | 1021.1 hPa | 0 mm | - | 406 W/m² | - |
| 1777559528 | 15.56° C | 25% | 1021.1 hPa | 0 mm | - | 417 W/m² | - |
| 1777559230 | 15.56° C | 25% | 1021.1 hPa | 0 mm | - | 417 W/m² | - |
| 1777558932 | 16.11° C | 27% | 1021.1 hPa | 0 mm | - | 420 W/m² | - |
| 1777558638 | 15.56° C | 25% | 1021.1 hPa | 0 mm | - | 434 W/m² | - |
| 1777558335 | 15.56° C | 26% | 1021.2 hPa | 0 mm | - | 434 W/m² | - |
| 1777558042 | 15° C | 25% | 1021.2 hPa | 0 mm | - | 446 W/m² | - |
| 1777557740 | 15° C | 25% | 1021.2 hPa | 0 mm | - | 455 W/m² | - |
| 1777557443 | 15° C | 25% | 1021.2 hPa | 0 mm | - | 461 W/m² | - |
| 1777557141 | 15.56° C | 27% | 1021.2 hPa | 0 mm | - | 459 W/m² | - |
| 1777556841 | 15.56° C | 28% | 1021.2 hPa | 0 mm | - | 469 W/m² | - |
| 1777556539 | 15° C | 30% | 1021.5 hPa | 0 mm | - | 469 W/m² | - |
| 1777556236 | 15° C | 27% | 1021.5 hPa | 0 mm | - | 482 W/m² | - |
| 1777555948 | 15° C | 28% | 1021.5 hPa | 0 mm | - | 487 W/m² | - |
| 1777555633 | 15° C | 28% | 1021.6 hPa | 0 mm | - | 492 W/m² | - |
| 1777555331 | 15° C | 27% | 1021.6 hPa | 0 mm | - | 499 W/m² | - |
* Rain since midnight (hover to see other rain measurements)
** Current wind speed in m/s (hover to see current wind gust speed)